sensor_id;sensor_type;location;lat;lon;timestamp;pressure;altitude;pressure_sealevel;temperature;humidity
8140;BME280;4111;50.972;7.072;2024-03-08T00:02:36;101304.50;;;5.47;65.90
8140;BME280;4111;50.972;7.072;2024-03-08T00:05:04;101306.56;;;5.38;66.13
8140;BME280;4111;50.972;7.072;2024-03-08T00:07:31;101294.53;;;5.41;66.01
8140;BME280;4111;50.972;7.072;2024-03-08T00:09:57;101293.91;;;5.39;66.33
8140;BME280;4111;50.972;7.072;2024-03-08T00:12:24;101289.94;;;5.34;65.89
8140;BME280;4111;50.972;7.072;2024-03-08T00:14:53;101292.25;;;5.38;66.47
8140;BME280;4111;50.972;7.072;2024-03-08T00:17:21;101279.44;;;5.40;66.26
8140;BME280;4111;50.972;7.072;2024-03-08T00:19:50;101277.75;;;5.39;66.28
8140;BME280;4111;50.972;7.072;2024-03-08T00:22:17;101277.53;;;5.33;66.30
8140;BME280;4111;50.972;7.072;2024-03-08T00:24:43;101271.53;;;5.31;66.74
8140;BME280;4111;50.972;7.072;2024-03-08T00:27:10;101269.22;;;5.28;66.73
8140;BME280;4111;50.972;7.072;2024-03-08T00:29:37;101268.81;;;5.31;66.53
8140;BME280;4111;50.972;7.072;2024-03-08T00:32:05;101265.50;;;5.29;66.80
8140;BME280;4111;50.972;7.072;2024-03-08T00:34:31;101255.13;;;5.26;67.42
8140;BME280;4111;50.972;7.072;2024-03-08T00:36:58;101262.53;;;5.18;67.21
8140;BME280;4111;50.972;7.072;2024-03-08T00:39:24;101253.38;;;5.12;67.18
8140;BME280;4111;50.972;7.072;2024-03-08T00:41:51;101253.38;;;5.12;67.36
8140;BME280;4111;50.972;7.072;2024-03-08T00:44:18;101253.13;;;5.07;67.44
8140;BME280;4111;50.972;7.072;2024-03-08T00:46:44;101252.53;;;5.11;67.26
8140;BME280;4111;50.972;7.072;2024-03-08T00:49:11;101254.19;;;5.06;67.46
8140;BME280;4111;50.972;7.072;2024-03-08T00:51:38;101238.66;;;5.08;67.57
8140;BME280;4111;50.972;7.072;2024-03-08T00:54:05;101246.72;;;5.08;67.71
8140;BME280;4111;50.972;7.072;2024-03-08T00:56:31;101241.13;;;5.09;67.46
8140;BME280;4111;50.972;7.072;2024-03-08T00:59:00;101244.25;;;5.13;67.45
8140;BME280;4111;50.972;7.072;2024-03-08T01:01:26;101239.47;;;5.08;67.52
8140;BME280;4111;50.972;7.072;2024-03-08T01:03:52;101239.63;;;5.00;67.17
8140;BME280;4111;50.972;7.072;2024-03-08T01:06:19;101238.16;;;4.97;67.64
8140;BME280;4111;50.972;7.072;2024-03-08T01:08:46;101237.16;;;4.99;67.53
8140;BME280;4111;50.972;7.072;2024-03-08T01:11:13;101236.47;;;4.90;67.91
8140;BME280;4111;50.972;7.072;2024-03-08T01:13:40;101233.00;;;4.96;68.19
8140;BME280;4111;50.972;7.072;2024-03-08T01:16:07;101224.69;;;4.97;67.88
8140;BME280;4111;50.972;7.072;2024-03-08T01:18:33;101227.16;;;4.92;68.25
8140;BME280;4111;50.972;7.072;2024-03-08T01:21:00;101219.28;;;4.91;68.06
8140;BME280;4111;50.972;7.072;2024-03-08T01:23:26;101216.78;;;4.89;68.05
8140;BME280;4111;50.972;7.072;2024-03-08T01:25:53;101210.78;;;4.87;68.58
8140;BME280;4111;50.972;7.072;2024-03-08T01:28:24;101207.25;;;4.87;68.14
8140;BME280;4111;50.972;7.072;2024-03-08T01:30:51;101203.13;;;4.84;68.80
8140;BME280;4111;50.972;7.072;2024-03-08T01:33:23;101200.63;;;4.89;68.49
8140;BME280;4111;50.972;7.072;2024-03-08T01:35:50;101200.00;;;4.87;68.88
8140;BME280;4111;50.972;7.072;2024-03-08T01:38:16;101199.22;;;4.93;68.88
8140;BME280;4111;50.972;7.072;2024-03-08T01:40:43;101197.78;;;4.97;68.58
8140;BME280;4111;50.972;7.072;2024-03-08T01:43:25;101186.00;;;4.99;68.74
8140;BME280;4111;50.972;7.072;2024-03-08T01:45:53;101189.53;;;4.99;68.59
8140;BME280;4111;50.972;7.072;2024-03-08T01:48:21;101182.06;;;4.94;68.51
8140;BME280;4111;50.972;7.072;2024-03-08T01:50:51;101185.56;;;4.95;68.48
8140;BME280;4111;50.972;7.072;2024-03-08T01:53:18;101184.13;;;4.92;68.63
8140;BME280;4111;50.972;7.072;2024-03-08T01:55:46;101176.03;;;4.92;68.79
8140;BME280;4111;50.972;7.072;2024-03-08T01:58:13;101163.75;;;4.83;68.86
8140;BME280;4111;50.972;7.072;2024-03-08T02:00:48;101162.94;;;4.83;68.68
8140;BME280;4111;50.972;7.072;2024-03-08T02:03:17;101167.78;;;4.66;68.82
8140;BME280;4111;50.972;7.072;2024-03-08T02:05:43;101161.25;;;4.75;68.59
8140;BME280;4111;50.972;7.072;2024-03-08T02:08:10;101155.25;;;4.80;69.32
8140;BME280;4111;50.972;7.072;2024-03-08T02:10:44;101155.47;;;4.78;68.99
8140;BME280;4111;50.972;7.072;2024-03-08T02:13:11;101162.50;;;4.79;68.88
8140;BME280;4111;50.972;7.072;2024-03-08T02:15:57;101159.19;;;4.77;69.28
8140;BME280;4111;50.972;7.072;2024-03-08T02:18:26;101164.19;;;4.80;69.32
8140;BME280;4111;50.972;7.072;2024-03-08T02:21:01;101158.34;;;4.76;69.41
8140;BME280;4111;50.972;7.072;2024-03-08T02:23:32;101149.59;;;4.68;69.34
8140;BME280;4111;50.972;7.072;2024-03-08T02:25:59;101152.16;;;4.76;69.18
8140;BME280;4111;50.972;7.072;2024-03-08T02:28:25;101145.09;;;4.75;69.38
8140;BME280;4111;50.972;7.072;2024-03-08T02:30:52;101150.09;;;4.78;69.23
8140;BME280;4111;50.972;7.072;2024-03-08T02:33:23;101145.34;;;4.80;69.06
8140;BME280;4111;50.972;7.072;2024-03-08T02:35:50;101138.84;;;4.68;69.06
8140;BME280;4111;50.972;7.072;2024-03-08T02:38:21;101140.09;;;4.72;69.38
8140;BME280;4111;50.972;7.072;2024-03-08T02:40:49;101147.97;;;4.73;69.21
8140;BME280;4111;50.972;7.072;2024-03-08T02:43:17;101139.97;;;4.80;69.35
8140;BME280;4111;50.972;7.072;2024-03-08T02:45:44;101140.97;;;4.79;69.05
8140;BME280;4111;50.972;7.072;2024-03-08T02:48:14;101130.63;;;4.76;69.11
8140;BME280;4111;50.972;7.072;2024-03-08T02:50:42;101132.69;;;4.74;69.41
8140;BME280;4111;50.972;7.072;2024-03-08T02:53:11;101132.69;;;4.74;69.33
8140;BME280;4111;50.972;7.072;2024-03-08T02:55:38;101127.31;;;4.74;69.08
8140;BME280;4111;50.972;7.072;2024-03-08T02:58:05;101123.28;;;4.56;69.17
8140;BME280;4111;50.972;7.072;2024-03-08T03:00:34;101118.13;;;4.62;69.36
8140;BME280;4111;50.972;7.072;2024-03-08T03:03:01;101119.53;;;4.57;69.33
8140;BME280;4111;50.972;7.072;2024-03-08T03:05:29;101118.53;;;4.59;69.46
8140;BME280;4111;50.972;7.072;2024-03-08T03:07:56;101115.03;;;4.65;69.11
8140;BME280;4111;50.972;7.072;2024-03-08T03:10:24;101116.84;;;4.57;69.20
8140;BME280;4111;50.972;7.072;2024-03-08T03:12:50;101111.88;;;4.54;69.22
8140;BME280;4111;50.972;7.072;2024-03-08T03:15:17;101114.94;;;4.51;69.79
8140;BME280;4111;50.972;7.072;2024-03-08T03:17:50;101110.22;;;4.53;69.69
8140;BME280;4111;50.972;7.072;2024-03-08T03:20:18;101108.75;;;4.51;69.61
8140;BME280;4111;50.972;7.072;2024-03-08T03:23:34;101104.19;;;4.51;69.68
8140;BME280;4111;50.972;7.072;2024-03-08T03:26:01;101106.88;;;4.51;69.73
8140;BME280;4111;50.972;7.072;2024-03-08T03:28:28;101104.84;;;4.53;69.79
8140;BME280;4111;50.972;7.072;2024-03-08T03:30:55;101098.56;;;4.46;69.78
8140;BME280;4111;50.972;7.072;2024-03-08T03:33:25;101102.06;;;4.40;69.44
8140;BME280;4111;50.972;7.072;2024-03-08T03:35:52;101095.06;;;4.46;69.97
8140;BME280;4111;50.972;7.072;2024-03-08T03:38:18;101088.84;;;4.45;69.80
8140;BME280;4111;50.972;7.072;2024-03-08T03:40:46;101092.28;;;4.32;70.03
8140;BME280;4111;50.972;7.072;2024-03-08T03:43:14;101094.41;;;4.37;70.00
8140;BME280;4111;50.972;7.072;2024-03-08T03:45:41;101079.91;;;4.38;69.89
8140;BME280;4111;50.972;7.072;2024-03-08T03:48:08;101081.50;;;4.26;70.06
8140;BME280;4111;50.972;7.072;2024-03-08T03:50:37;101087.31;;;4.29;70.05
8140;BME280;4111;50.972;7.072;2024-03-08T03:53:04;101084.22;;;4.32;70.05
8140;BME280;4111;50.972;7.072;2024-03-08T03:55:35;101086.56;;;4.42;70.22
8140;BME280;4111;50.972;7.072;2024-03-08T03:58:03;101084.13;;;4.47;70.20
8140;BME280;4111;50.972;7.072;2024-03-08T04:00:29;101089.88;;;4.44;69.97
8140;BME280;4111;50.972;7.072;2024-03-08T04:02:56;101092.72;;;4.36;70.14
8140;BME280;4111;50.972;7.072;2024-03-08T04:05:26;101080.31;;;4.35;70.07
8140;BME280;4111;50.972;7.072;2024-03-08T04:07:52;101089.03;;;4.37;70.31
8140;BME280;4111;50.972;7.072;2024-03-08T04:10:18;101088.59;;;4.40;70.23
8140;BME280;4111;50.972;7.072;2024-03-08T04:12:46;101080.88;;;4.30;70.47
8140;BME280;4111;50.972;7.072;2024-03-08T04:15:12;101080.47;;;4.27;70.40
8140;BME280;4111;50.972;7.072;2024-03-08T04:17:39;101068.94;;;4.33;70.26
8140;BME280;4111;50.972;7.072;2024-03-08T04:20:06;101082.56;;;4.31;70.39
8140;BME280;4111;50.972;7.072;2024-03-08T04:22:40;101077.38;;;4.30;70.44
8140;BME280;4111;50.972;7.072;2024-03-08T04:25:07;101075.31;;;4.32;70.21
8140;BME280;4111;50.972;7.072;2024-03-08T04:27:33;101073.69;;;4.31;70.40
8140;BME280;4111;50.972;7.072;2024-03-08T04:30:02;101067.03;;;4.27;71.09
8140;BME280;4111;50.972;7.072;2024-03-08T04:32:28;101063.91;;;4.23;70.84
8140;BME280;4111;50.972;7.072;2024-03-08T04:34:56;101069.50;;;4.28;70.87
8140;BME280;4111;50.972;7.072;2024-03-08T04:37:23;101067.25;;;4.32;71.10
8140;BME280;4111;50.972;7.072;2024-03-08T04:39:50;101061.25;;;4.30;70.71
8140;BME280;4111;50.972;7.072;2024-03-08T04:42:16;101056.28;;;4.27;70.64
8140;BME280;4111;50.972;7.072;2024-03-08T04:44:44;101054.63;;;4.26;70.61
8140;BME280;4111;50.972;7.072;2024-03-08T04:47:11;101051.03;;;4.18;70.84
8140;BME280;4111;50.972;7.072;2024-03-08T04:49:37;101063.72;;;4.25;70.94
8140;BME280;4111;50.972;7.072;2024-03-08T04:52:04;101053.38;;;4.28;71.35
8140;BME280;4111;50.972;7.072;2024-03-08T04:54:31;101047.19;;;4.28;70.90
8140;BME280;4111;50.972;7.072;2024-03-08T04:56:57;101047.34;;;4.20;71.01
8140;BME280;4111;50.972;7.072;2024-03-08T04:59:26;101043.81;;;4.19;70.97
8140;BME280;4111;50.972;7.072;2024-03-08T05:01:53;101048.34;;;4.18;71.40
8140;BME280;4111;50.972;7.072;2024-03-08T05:04:20;101045.03;;;4.16;71.12
8140;BME280;4111;50.972;7.072;2024-03-08T05:06:46;101049.59;;;4.16;71.18
8140;BME280;4111;50.972;7.072;2024-03-08T05:09:13;101040.44;;;4.10;71.10
8140;BME280;4111;50.972;7.072;2024-03-08T05:11:41;101036.75;;;4.11;71.41
8140;BME280;4111;50.972;7.072;2024-03-08T05:14:09;101031.59;;;4.16;71.36
8140;BME280;4111;50.972;7.072;2024-03-08T05:16:36;101033.28;;;4.17;71.65
8140;BME280;4111;50.972;7.072;2024-03-08T05:19:02;101026.03;;;4.18;71.42
8140;BME280;4111;50.972;7.072;2024-03-08T05:21:29;101028.28;;;4.14;71.51
8140;BME280;4111;50.972;7.072;2024-03-08T05:23:55;101029.75;;;4.17;71.86
8140;BME280;4111;50.972;7.072;2024-03-08T05:26:22;101026.03;;;4.18;71.77
8140;BME280;4111;50.972;7.072;2024-03-08T05:28:48;101026.03;;;4.18;71.45
8140;BME280;4111;50.972;7.072;2024-03-08T05:31:20;101027.69;;;4.19;71.63
8140;BME280;4111;50.972;7.072;2024-03-08T05:33:49;101024.81;;;4.21;71.64
8140;BME280;4111;50.972;7.072;2024-03-08T05:36:16;101028.72;;;4.18;71.62
8140;BME280;4111;50.972;7.072;2024-03-08T05:38:43;101022.97;;;4.21;71.90
8140;BME280;4111;50.972;7.072;2024-03-08T05:41:10;101028.97;;;4.23;71.67
8140;BME280;4111;50.972;7.072;2024-03-08T05:43:40;101018.59;;;4.20;71.78
8140;BME280;4111;50.972;7.072;2024-03-08T05:46:06;101014.84;;;4.14;71.51
8140;BME280;4111;50.972;7.072;2024-03-08T05:48:33;101019.03;;;4.24;71.95
8140;BME280;4111;50.972;7.072;2024-03-08T05:51:00;101006.38;;;4.11;71.43
8140;BME280;4111;50.972;7.072;2024-03-08T05:53:28;101012.56;;;4.11;72.15
8140;BME280;4111;50.972;7.072;2024-03-08T05:55:58;101019.38;;;4.14;71.84
8140;BME280;4111;50.972;7.072;2024-03-08T05:58:25;101013.19;;;4.13;72.26
8140;BME280;4111;50.972;7.072;2024-03-08T06:00:51;101013.19;;;4.13;72.11
8140;BME280;4111;50.972;7.072;2024-03-08T06:03:19;101009.53;;;4.21;72.19
8140;BME280;4111;50.972;7.072;2024-03-08T06:05:50;101014.06;;;4.21;72.71
8140;BME280;4111;50.972;7.072;2024-03-08T06:08:17;101006.84;;;4.21;73.51
8140;BME280;4111;50.972;7.072;2024-03-08T06:10:45;101009.97;;;4.25;72.92
8140;BME280;4111;50.972;7.072;2024-03-08T06:13:12;101006.84;;;4.28;73.01
8140;BME280;4111;50.972;7.072;2024-03-08T06:15:39;100996.75;;;4.30;73.01
8140;BME280;4111;50.972;7.072;2024-03-08T06:18:05;101001.38;;;4.49;73.26
8140;BME280;4111;50.972;7.072;2024-03-08T06:20:32;101003.47;;;4.54;72.75
8140;BME280;4111;50.972;7.072;2024-03-08T06:22:59;100999.75;;;4.48;72.53
8140;BME280;4111;50.972;7.072;2024-03-08T06:25:27;101000.38;;;4.50;72.75
8140;BME280;4111;50.972;7.072;2024-03-08T06:27:54;100996.88;;;4.56;72.27
8140;BME280;4111;50.972;7.072;2024-03-08T06:30:20;101010.09;;;4.51;72.34
8140;BME280;4111;50.972;7.072;2024-03-08T06:32:48;100993.97;;;4.58;72.17
8140;BME280;4111;50.972;7.072;2024-03-08T06:35:15;100994.00;;;4.65;72.35
8140;BME280;4111;50.972;7.072;2024-03-08T06:37:42;101002.44;;;4.55;72.31
8140;BME280;4111;50.972;7.072;2024-03-08T06:40:11;100995.88;;;4.71;72.44
8140;BME280;4111;50.972;7.072;2024-03-08T06:42:40;100996.91;;;4.70;72.01
8140;BME280;4111;50.972;7.072;2024-03-08T06:45:07;100999.00;;;4.74;71.98
8140;BME280;4111;50.972;7.072;2024-03-08T06:47:36;100989.44;;;4.59;72.01
8140;BME280;4111;50.972;7.072;2024-03-08T06:50:03;100989.47;;;4.72;72.16
8140;BME280;4111;50.972;7.072;2024-03-08T06:52:30;100995.31;;;4.82;71.70
8140;BME280;4111;50.972;7.072;2024-03-08T06:54:57;100986.97;;;4.64;71.96
8140;BME280;4111;50.972;7.072;2024-03-08T06:57:24;100990.06;;;4.61;71.98
8140;BME280;4111;50.972;7.072;2024-03-08T06:59:51;100977.44;;;4.61;72.15
8140;BME280;4111;50.972;7.072;2024-03-08T07:02:18;100982.19;;;4.66;72.11
8140;BME280;4111;50.972;7.072;2024-03-08T07:04:45;100987.81;;;4.71;72.62
8140;BME280;4111;50.972;7.072;2024-03-08T07:07:11;100984.94;;;4.72;72.27
8140;BME280;4111;50.972;7.072;2024-03-08T07:09:37;100994.47;;;4.75;72.06
8140;BME280;4111;50.972;7.072;2024-03-08T07:12:04;100982.50;;;4.84;72.40
8140;BME280;4111;50.972;7.072;2024-03-08T07:14:31;100982.25;;;4.79;72.34
8140;BME280;4111;50.972;7.072;2024-03-08T07:16:57;100984.38;;;4.90;72.15
8140;BME280;4111;50.972;7.072;2024-03-08T07:19:23;100968.84;;;4.92;72.08
8140;BME280;4111;50.972;7.072;2024-03-08T07:21:50;100972.16;;;5.01;72.08
8140;BME280;4111;50.972;7.072;2024-03-08T07:24:16;100973.84;;;5.09;71.85
8140;BME280;4111;50.972;7.072;2024-03-08T07:26:43;100971.78;;;5.11;71.69
8140;BME280;4111;50.972;7.072;2024-03-08T07:29:10;100965.56;;;5.17;72.09
8140;BME280;4111;50.972;7.072;2024-03-08T07:31:36;100966.00;;;5.27;72.02
8140;BME280;4111;50.972;7.072;2024-03-08T07:34:22;100956.69;;;5.30;71.26
8140;BME280;4111;50.972;7.072;2024-03-08T07:36:48;100962.47;;;5.40;71.28
8140;BME280;4111;50.972;7.072;2024-03-08T07:39:17;100956.91;;;5.55;71.00
8140;BME280;4111;50.972;7.072;2024-03-08T07:41:43;100949.63;;;5.62;70.44
8140;BME280;4111;50.972;7.072;2024-03-08T07:44:10;100953.56;;;5.80;70.36
8140;BME280;4111;50.972;7.072;2024-03-08T07:46:36;100941.50;;;6.02;69.99
8140;BME280;4111;50.972;7.072;2024-03-08T07:49:03;100942.31;;;6.09;69.47
8140;BME280;4111;50.972;7.072;2024-03-08T07:51:30;100936.91;;;6.16;69.33
8140;BME280;4111;50.972;7.072;2024-03-08T07:53:57;100936.84;;;6.36;69.09
8140;BME280;4111;50.972;7.072;2024-03-08T07:56:23;100929.13;;;6.46;69.03
8140;BME280;4111;50.972;7.072;2024-03-08T07:58:51;100929.75;;;6.42;68.44
8140;BME280;4111;50.972;7.072;2024-03-08T08:01:19;100935.53;;;6.45;67.82
8140;BME280;4111;50.972;7.072;2024-03-08T08:03:46;100926.09;;;6.68;68.00
8140;BME280;4111;50.972;7.072;2024-03-08T08:06:15;100924.16;;;6.82;67.53
8140;BME280;4111;50.972;7.072;2024-03-08T08:08:42;100924.91;;;6.95;67.90
8140;BME280;4111;50.972;7.072;2024-03-08T08:11:09;100914.88;;;7.03;67.07
8140;BME280;4111;50.972;7.072;2024-03-08T08:13:37;100917.31;;;7.11;67.02
8140;BME280;4111;50.972;7.072;2024-03-08T08:16:04;100915.88;;;7.08;66.15
8140;BME280;4111;50.972;7.072;2024-03-08T08:18:32;100907.72;;;7.15;66.55
8140;BME280;4111;50.972;7.072;2024-03-08T08:20:59;100901.88;;;7.18;66.58
8140;BME280;4111;50.972;7.072;2024-03-08T08:23:28;100908.09;;;7.19;66.13
8140;BME280;4111;50.972;7.072;2024-03-08T08:25:56;100894.59;;;7.19;66.13
8140;BME280;4111;50.972;7.072;2024-03-08T08:28:22;100893.97;;;7.23;66.11
8140;BME280;4111;50.972;7.072;2024-03-08T08:30:49;100892.25;;;7.29;65.43
8140;BME280;4111;50.972;7.072;2024-03-08T08:33:16;100887.97;;;7.40;66.13
8140;BME280;4111;50.972;7.072;2024-03-08T08:35:42;100891.06;;;7.43;65.48
8140;BME280;4111;50.972;7.072;2024-03-08T08:38:09;100882.06;;;7.49;64.99
8140;BME280;4111;50.972;7.072;2024-03-08T08:40:35;100881.31;;;7.42;64.33
8140;BME280;4111;50.972;7.072;2024-03-08T08:43:03;100871.56;;;7.60;64.78
8140;BME280;4111;50.972;7.072;2024-03-08T08:45:33;100871.06;;;7.69;64.74
8140;BME280;4111;50.972;7.072;2024-03-08T08:47:59;100874.31;;;7.78;64.47
8140;BME280;4111;50.972;7.072;2024-03-08T08:50:26;100880.59;;;7.72;64.17
8140;BME280;4111;50.972;7.072;2024-03-08T08:52:54;100861.75;;;7.84;64.02
8140;BME280;4111;50.972;7.072;2024-03-08T08:55:22;100862.66;;;7.96;64.08
8140;BME280;4111;50.972;7.072;2024-03-08T08:57:52;100857.84;;;8.17;63.64
8140;BME280;4111;50.972;7.072;2024-03-08T09:00:19;100861.28;;;8.24;63.13
8140;BME280;4111;50.972;7.072;2024-03-08T09:02:46;100850.94;;;8.51;63.12
8140;BME280;4111;50.972;7.072;2024-03-08T09:05:14;100856.34;;;8.51;62.38
8140;BME280;4111;50.972;7.072;2024-03-08T09:07:46;100851.69;;;8.58;61.93
8140;BME280;4111;50.972;7.072;2024-03-08T09:10:12;100848.88;;;8.65;61.45
8140;BME280;4111;50.972;7.072;2024-03-08T09:12:43;100847.25;;;8.76;61.65
8140;BME280;4111;50.972;7.072;2024-03-08T09:15:10;100856.59;;;8.91;61.58
8140;BME280;4111;50.972;7.072;2024-03-08T09:17:40;100841.91;;;8.99;60.80
8140;BME280;4111;50.972;7.072;2024-03-08T09:20:07;100839.66;;;9.08;60.64
8140;BME280;4111;50.972;7.072;2024-03-08T09:22:43;100838.13;;;9.12;60.40
8140;BME280;4111;50.972;7.072;2024-03-08T09:25:10;100838.38;;;9.10;59.58
8140;BME280;4111;50.972;7.072;2024-03-08T09:27:37;100834.47;;;9.18;60.02
8140;BME280;4111;50.972;7.072;2024-03-08T09:30:06;100841.56;;;9.43;59.87
8140;BME280;4111;50.972;7.072;2024-03-08T09:32:33;100833.06;;;9.51;59.26
8140;BME280;4111;50.972;7.072;2024-03-08T09:34:59;100827.84;;;9.61;58.84
8140;BME280;4111;50.972;7.072;2024-03-08T09:37:27;100824.34;;;9.61;58.78
8140;BME280;4111;50.972;7.072;2024-03-08T09:39:54;100815.13;;;9.73;58.76
8140;BME280;4111;50.972;7.072;2024-03-08T09:42:20;100814.38;;;9.90;58.70
8140;BME280;4111;50.972;7.072;2024-03-08T09:44:47;100812.03;;;9.82;58.07
8140;BME280;4111;50.972;7.072;2024-03-08T09:47:14;100799.44;;;9.76;57.87
8140;BME280;4111;50.972;7.072;2024-03-08T09:49:41;100795.78;;;9.82;57.91
8140;BME280;4111;50.972;7.072;2024-03-08T09:52:07;100789.84;;;9.85;57.70
8140;BME280;4111;50.972;7.072;2024-03-08T09:54:34;100791.00;;;9.89;57.46
8140;BME280;4111;50.972;7.072;2024-03-08T09:57:03;100779.69;;;9.92;57.83
8140;BME280;4111;50.972;7.072;2024-03-08T09:59:30;100793.72;;;9.89;57.32
8140;BME280;4111;50.972;7.072;2024-03-08T10:02:03;100784.38;;;9.97;57.22
8140;BME280;4111;50.972;7.072;2024-03-08T10:04:30;100774.97;;;9.99;57.24
8140;BME280;4111;50.972;7.072;2024-03-08T10:07:00;100769.16;;;10.07;57.05
8140;BME280;4111;50.972;7.072;2024-03-08T10:09:27;100775.34;;;10.20;56.90
8140;BME280;4111;50.972;7.072;2024-03-08T10:11:57;100769.66;;;10.33;56.99
8140;BME280;4111;50.972;7.072;2024-03-08T10:14:26;100764.50;;;10.20;56.42
8140;BME280;4111;50.972;7.072;2024-03-08T10:16:53;100771.19;;;10.29;56.66
8140;BME280;4111;50.972;7.072;2024-03-08T10:19:20;100763.03;;;10.29;56.59
8140;BME280;4111;50.972;7.072;2024-03-08T10:21:49;100768.47;;;10.29;56.37
8140;BME280;4111;50.972;7.072;2024-03-08T10:24:15;100757.22;;;10.37;56.19
8140;BME280;4111;50.972;7.072;2024-03-08T10:26:43;100753.03;;;10.46;55.98
8140;BME280;4111;50.972;7.072;2024-03-08T10:29:10;100736.25;;;10.49;55.88
8140;BME280;4111;50.972;7.072;2024-03-08T10:31:44;100733.06;;;10.52;55.84
8140;BME280;4111;50.972;7.072;2024-03-08T10:34:11;100737.25;;;10.60;55.54
8140;BME280;4111;50.972;7.072;2024-03-08T10:36:39;100729.50;;;10.35;54.85
8140;BME280;4111;50.972;7.072;2024-03-08T10:39:21;100728.03;;;10.44;55.95
8140;BME280;4111;50.972;7.072;2024-03-08T10:41:58;100713.00;;;10.70;55.89
8140;BME280;4111;50.972;7.072;2024-03-08T10:47:02;100712.53;;;10.96;55.09
8140;BME280;4111;50.972;7.072;2024-03-08T10:49:37;100714.84;;;11.04;54.95
8140;BME280;4111;50.972;7.072;2024-03-08T10:52:05;100710.50;;;10.69;53.72
8140;BME280;4111;50.972;7.072;2024-03-08T10:54:36;100702.09;;;10.87;54.27
8140;BME280;4111;50.972;7.072;2024-03-08T10:57:12;100700.66;;;11.02;54.08
8140;BME280;4111;50.972;7.072;2024-03-08T10:59:39;100703.78;;;11.10;53.93
8140;BME280;4111;50.972;7.072;2024-03-08T11:02:06;100703.09;;;11.20;53.72
8140;BME280;4111;50.972;7.072;2024-03-08T11:04:33;100691.69;;;11.23;53.29
8140;BME280;4111;50.972;7.072;2024-03-08T11:07:01;100688.38;;;11.38;53.30
8140;BME280;4111;50.972;7.072;2024-03-08T11:09:37;100686.59;;;11.49;53.19
8140;BME280;4111;50.972;7.072;2024-03-08T11:14:51;100672.72;;;11.73;52.66
8140;BME280;4111;50.972;7.072;2024-03-08T11:17:44;100667.97;;;11.63;51.17
8140;BME280;4111;50.972;7.072;2024-03-08T11:20:18;100669.22;;;11.50;50.61
8140;BME280;4111;50.972;7.072;2024-03-08T11:22:59;100680.41;;;11.54;50.61
8140;BME280;4111;50.972;7.072;2024-03-08T11:25:39;100660.25;;;11.49;50.41
8140;BME280;4111;50.972;7.072;2024-03-08T11:28:17;100664.59;;;11.50;50.21
8140;BME280;4111;50.972;7.072;2024-03-08T11:33:28;100636.91;;;11.54;49.84
8140;BME280;4111;50.972;7.072;2024-03-08T11:36:10;100643.97;;;11.55;49.83
8140;BME280;4111;50.972;7.072;2024-03-08T11:38:41;100632.47;;;11.75;50.63
8140;BME280;4111;50.972;7.072;2024-03-08T11:41:08;100642.13;;;11.87;49.53
8140;BME280;4111;50.972;7.072;2024-03-08T11:43:35;100627.91;;;11.80;48.85
8140;BME280;4111;50.972;7.072;2024-03-08T11:46:11;100619.34;;;11.66;48.54
8140;BME280;4111;50.972;7.072;2024-03-08T11:48:42;100634.13;;;11.76;48.39
8140;BME280;4111;50.972;7.072;2024-03-08T11:51:11;100610.53;;;11.86;48.29
8140;BME280;4111;50.972;7.072;2024-03-08T11:53:38;100618.84;;;11.97;48.33
8140;BME280;4111;50.972;7.072;2024-03-08T11:56:07;100600.13;;;12.05;47.90
8140;BME280;4111;50.972;7.072;2024-03-08T11:58:34;100603.72;;;12.11;47.84
8140;BME280;4111;50.972;7.072;2024-03-08T12:01:10;100599.09;;;12.12;47.74
8140;BME280;4111;50.972;7.072;2024-03-08T12:03:40;100613.13;;;11.98;47.19
8140;BME280;4111;50.972;7.072;2024-03-08T12:06:12;100602.31;;;12.03;47.33
8140;BME280;4111;50.972;7.072;2024-03-08T12:08:41;100602.31;;;12.03;47.00
8140;BME280;4111;50.972;7.072;2024-03-08T12:11:07;100597.09;;;11.97;47.16
8140;BME280;4111;50.972;7.072;2024-03-08T12:13:37;100594.47;;;12.12;46.93
8140;BME280;4111;50.972;7.072;2024-03-08T12:16:03;100584.00;;;12.31;47.18
8140;BME280;4111;50.972;7.072;2024-03-08T12:18:37;100596.06;;;12.40;46.83
8140;BME280;4111;50.972;7.072;2024-03-08T12:21:06;100593.94;;;12.53;46.69
8140;BME280;4111;50.972;7.072;2024-03-08T12:23:38;100588.59;;;12.68;46.31
8140;BME280;4111;50.972;7.072;2024-03-08T12:26:24;100579.41;;;12.84;46.20
8140;BME280;4111;50.972;7.072;2024-03-08T12:28:52;100573.19;;;12.94;45.96
8140;BME280;4111;50.972;7.072;2024-03-08T12:31:20;100565.88;;;13.10;45.32
8140;BME280;4111;50.972;7.072;2024-03-08T12:36:15;100559.97;;;13.44;45.18
8140;BME280;4111;50.972;7.072;2024-03-08T12:38:49;100544.75;;;13.68;45.15
8140;BME280;4111;50.972;7.072;2024-03-08T12:41:20;100558.66;;;13.67;45.07
8140;BME280;4111;50.972;7.072;2024-03-08T12:43:47;100548.56;;;14.03;44.89
8140;BME280;4111;50.972;7.072;2024-03-08T12:46:18;100535.44;;;14.11;44.47
8140;BME280;4111;50.972;7.072;2024-03-08T12:48:48;100543.59;;;14.31;44.10
8140;BME280;4111;50.972;7.072;2024-03-08T12:51:16;100538.94;;;14.37;43.65
8140;BME280;4111;50.972;7.072;2024-03-08T12:53:42;100541.44;;;14.28;42.89
8140;BME280;4111;50.972;7.072;2024-03-08T12:56:14;100536.50;;;14.25;42.91
8140;BME280;4111;50.972;7.072;2024-03-08T12:58:43;100527.72;;;14.43;43.14
8140;BME280;4111;50.972;7.072;2024-03-08T13:01:10;100522.81;;;14.40;42.63
8140;BME280;4111;50.972;7.072;2024-03-08T13:03:38;100528.03;;;14.26;42.46
8140;BME280;4111;50.972;7.072;2024-03-08T13:06:06;100517.34;;;14.40;42.34
8140;BME280;4111;50.972;7.072;2024-03-08T13:08:36;100516.59;;;14.19;42.05
8140;BME280;4111;50.972;7.072;2024-03-08T13:11:08;100511.41;;;14.23;42.14
8140;BME280;4111;50.972;7.072;2024-03-08T13:13:37;100509.41;;;14.49;42.07
8140;BME280;4111;50.972;7.072;2024-03-08T13:16:07;100510.19;;;14.55;41.74
8140;BME280;4111;50.972;7.072;2024-03-08T13:18:36;100487.84;;;14.42;41.32
8140;BME280;4111;50.972;7.072;2024-03-08T13:21:04;100499.13;;;14.15;41.12
8140;BME280;4111;50.972;7.072;2024-03-08T13:23:34;100501.31;;;14.18;41.23
8140;BME280;4111;50.972;7.072;2024-03-08T13:26:07;100489.47;;;14.43;41.45
8140;BME280;4111;50.972;7.072;2024-03-08T13:28:34;100482.03;;;14.70;41.36
8140;BME280;4111;50.972;7.072;2024-03-08T13:31:04;100480.00;;;14.96;40.73
8140;BME280;4111;50.972;7.072;2024-03-08T13:33:33;100476.28;;;15.21;40.62
8140;BME280;4111;50.972;7.072;2024-03-08T13:36:03;100464.69;;;15.69;40.63
8140;BME280;4111;50.972;7.072;2024-03-08T13:38:35;100447.97;;;15.99;39.78